sensor_id;sensor_type;location;lat;lon;timestamp;pressure;altitude;pressure_sealevel;temperature;humidity
23433;BME280;41331;45.412;10.992;2023-02-13T00:00:47;103059.94;;;6.55;59.90
23433;BME280;41331;45.412;10.992;2023-02-13T00:03:15;103065.34;;;6.55;59.19
23433;BME280;41331;45.412;10.992;2023-02-13T00:05:44;103051.84;;;6.55;59.11
23433;BME280;41331;45.412;10.992;2023-02-13T00:08:11;103063.97;;;6.53;59.31
23433;BME280;41331;45.412;10.992;2023-02-13T00:10:39;103064.19;;;6.51;59.18
23433;BME280;41331;45.412;10.992;2023-02-13T00:13:06;103064.66;;;6.48;59.53
23433;BME280;41331;45.412;10.992;2023-02-13T00:15:33;103059.25;;;6.48;60.09
23433;BME280;41331;45.412;10.992;2023-02-13T00:18:01;103064.31;;;6.44;60.02
23433;BME280;41331;45.412;10.992;2023-02-13T00:20:29;103057.97;;;6.39;60.37
23433;BME280;41331;45.412;10.992;2023-02-13T00:22:58;103064.78;;;6.30;60.68
23433;BME280;41331;45.412;10.992;2023-02-13T00:25:25;103065.72;;;6.35;60.52
23433;BME280;41331;45.412;10.992;2023-02-13T00:27:53;103071.03;;;6.30;60.93
23433;BME280;41331;45.412;10.992;2023-02-13T00:30:21;103072.19;;;6.34;60.72
23433;BME280;41331;45.412;10.992;2023-02-13T00:32:50;103078.06;;;6.31;61.41
23433;BME280;41331;45.412;10.992;2023-02-13T00:35:17;103079.25;;;6.23;62.02
23433;BME280;41331;45.412;10.992;2023-02-13T00:37:47;103076.31;;;6.25;61.80
23433;BME280;41331;45.412;10.992;2023-02-13T00:40:15;103069.72;;;6.21;62.00
23433;BME280;41331;45.412;10.992;2023-02-13T00:42:42;103083.03;;;6.22;62.07
23433;BME280;41331;45.412;10.992;2023-02-13T00:45:09;103081.84;;;6.18;62.10
23433;BME280;41331;45.412;10.992;2023-02-13T00:47:40;103079.72;;;6.20;62.23
23433;BME280;41331;45.412;10.992;2023-02-13T00:50:07;103079.34;;;6.17;62.78
23433;BME280;41331;45.412;10.992;2023-02-13T00:52:35;103084.06;;;6.21;62.01
23433;BME280;41331;45.412;10.992;2023-02-13T00:55:03;103085.50;;;6.24;61.81
23433;BME280;41331;45.412;10.992;2023-02-13T00:57:30;103085.72;;;6.22;61.89
23433;BME280;41331;45.412;10.992;2023-02-13T00:59:58;103091.13;;;6.22;62.31
23433;BME280;41331;45.412;10.992;2023-02-13T01:02:25;103087.94;;;6.14;62.63
23433;BME280;41331;45.412;10.992;2023-02-13T01:04:54;103083.59;;;6.13;62.08
23433;BME280;41331;45.412;10.992;2023-02-13T01:07:22;103096.16;;;6.07;62.92
23433;BME280;41331;45.412;10.992;2023-02-13T01:09:49;103089.91;;;6.07;63.53
23433;BME280;41331;45.412;10.992;2023-02-13T01:12:19;103090.16;;;6.05;63.06
23433;BME280;41331;45.412;10.992;2023-02-13T01:14:46;103085.81;;;6.04;63.52
23433;BME280;41331;45.412;10.992;2023-02-13T01:17:15;103088.97;;;6.01;63.57
23433;BME280;41331;45.412;10.992;2023-02-13T01:19:42;103091.78;;;5.94;63.74
23433;BME280;41331;45.412;10.992;2023-02-13T01:22:09;103085.16;;;5.90;64.23
23433;BME280;41331;45.412;10.992;2023-02-13T01:24:37;103098.31;;;5.87;64.51
23433;BME280;41331;45.412;10.992;2023-02-13T01:27:04;103086.69;;;5.86;64.11
23433;BME280;41331;45.412;10.992;2023-02-13T01:29:31;103090.31;;;5.80;65.13
23433;BME280;41331;45.412;10.992;2023-02-13T01:32:00;103087.25;;;5.77;65.65
23433;BME280;41331;45.412;10.992;2023-02-13T01:34:32;103092.19;;;5.80;64.84
23433;BME280;41331;45.412;10.992;2023-02-13T01:36:59;103091.81;;;5.76;65.44
23433;BME280;41331;45.412;10.992;2023-02-13T01:39:27;103089.69;;;5.66;66.64
23433;BME280;41331;45.412;10.992;2023-02-13T01:41:54;103089.56;;;5.61;67.27
23433;BME280;41331;45.412;10.992;2023-02-13T01:47:27;103077.59;;;5.57;67.84
23433;BME280;41331;45.412;10.992;2023-02-13T01:50:07;103084.09;;;5.38;68.90
23433;BME280;41331;45.412;10.992;2023-02-13T01:52:39;103076.88;;;5.32;69.41
23433;BME280;41331;45.412;10.992;2023-02-13T01:55:08;103086.84;;;5.31;69.96
23433;BME280;41331;45.412;10.992;2023-02-13T01:57:39;103079.22;;;5.28;69.61
23433;BME280;41331;45.412;10.992;2023-02-13T02:00:12;103081.16;;;5.21;70.99
23433;BME280;41331;45.412;10.992;2023-02-13T02:02:51;103078.72;;;5.19;70.67
23433;BME280;41331;45.412;10.992;2023-02-13T02:05:26;103078.34;;;5.16;70.97
23433;BME280;41331;45.412;10.992;2023-02-13T02:07:56;103071.81;;;5.05;71.88
23433;BME280;41331;45.412;10.992;2023-02-13T02:10:25;103073.94;;;5.03;71.75
23433;BME280;41331;45.412;10.992;2023-02-13T02:13:06;103084.66;;;4.91;72.28
23433;BME280;41331;45.412;10.992;2023-02-13T02:15:40;103083.16;;;4.96;72.75
23433;BME280;41331;45.412;10.992;2023-02-13T02:18:17;103076.41;;;4.86;72.59
23433;BME280;41331;45.412;10.992;2023-02-13T02:27:03;103070.28;;;4.98;73.49
23433;BME280;41331;45.412;10.992;2023-02-13T02:38:05;103074.09;;;4.90;74.26
23433;BME280;41331;45.412;10.992;2023-02-13T02:43:27;103067.88;;;4.71;75.54
23433;BME280;41331;45.412;10.992;2023-02-13T02:46:10;103068.34;;;4.68;75.20
23433;BME280;41331;45.412;10.992;2023-02-13T02:48:47;103066.69;;;4.67;75.88
23433;BME280;41331;45.412;10.992;2023-02-13T02:54:31;103055.81;;;4.74;76.01
23433;BME280;41331;45.412;10.992;2023-02-13T02:57:24;103062.94;;;4.68;76.04
23433;BME280;41331;45.412;10.992;2023-02-13T03:00:17;103059.34;;;4.74;75.99
23433;BME280;41331;45.412;10.992;2023-02-13T03:03:07;103062.84;;;4.75;75.55
23433;BME280;41331;45.412;10.992;2023-02-13T03:05:53;103058.38;;;4.68;76.37
23433;BME280;41331;45.412;10.992;2023-02-13T03:08:39;103058.13;;;4.70;76.87
23433;BME280;41331;45.412;10.992;2023-02-13T03:11:27;103055.56;;;4.75;76.21
23433;BME280;41331;45.412;10.992;2023-02-13T03:14:17;103049.22;;;4.70;76.54
23433;BME280;41331;45.412;10.992;2023-02-13T03:16:49;103055.75;;;4.62;76.85
23433;BME280;41331;45.412;10.992;2023-02-13T03:22:57;103061.34;;;4.60;76.68
23433;BME280;41331;45.412;10.992;2023-02-13T03:25:28;103065.44;;;4.45;77.80
23433;BME280;41331;45.412;10.992;2023-02-13T03:31:11;103066.50;;;4.44;77.94
23433;BME280;41331;45.412;10.992;2023-02-13T03:39:55;103064.56;;;4.51;77.01
23433;BME280;41331;45.412;10.992;2023-02-13T03:45:17;103060.06;;;4.45;77.07
23433;BME280;41331;45.412;10.992;2023-02-13T03:48:06;103062.69;;;4.51;76.39
23433;BME280;41331;45.412;10.992;2023-02-13T03:50:58;103067.19;;;4.57;77.00
23433;BME280;41331;45.412;10.992;2023-02-13T03:53:30;103057.28;;;4.51;77.56
23433;BME280;41331;45.412;10.992;2023-02-13T03:56:01;103063.56;;;4.45;77.64
23433;BME280;41331;45.412;10.992;2023-02-13T03:58:51;103069.06;;;4.38;77.49
23433;BME280;41331;45.412;10.992;2023-02-13T04:01:39;103057.22;;;4.39;77.02
23433;BME280;41331;45.412;10.992;2023-02-13T04:06:59;103067.75;;;4.41;77.34
23433;BME280;41331;45.412;10.992;2023-02-13T04:09:29;103065.88;;;4.41;77.20
23433;BME280;41331;45.412;10.992;2023-02-13T04:12:18;103066.91;;;4.47;77.80
23433;BME280;41331;45.412;10.992;2023-02-13T04:17:31;103074.28;;;4.33;78.17
23433;BME280;41331;45.412;10.992;2023-02-13T04:20:00;103078.91;;;4.26;78.21
23433;BME280;41331;45.412;10.992;2023-02-13T04:22:27;103070.16;;;4.31;77.99
23433;BME280;41331;45.412;10.992;2023-02-13T04:24:55;103069.00;;;4.20;78.42
23433;BME280;41331;45.412;10.992;2023-02-13T04:27:24;103079.78;;;4.20;79.04
23433;BME280;41331;45.412;10.992;2023-02-13T04:29:53;103076.25;;;4.20;78.73
23433;BME280;41331;45.412;10.992;2023-02-13T04:32:20;103073.97;;;4.23;78.67
23433;BME280;41331;45.412;10.992;2023-02-13T04:34:47;103074.16;;;4.22;78.78
23433;BME280;41331;45.412;10.992;2023-02-13T04:37:15;103066.31;;;4.20;78.95
23433;BME280;41331;45.412;10.992;2023-02-13T04:39:42;103070.22;;;4.24;78.58
23433;BME280;41331;45.412;10.992;2023-02-13T04:42:09;103078.56;;;4.16;78.33
23433;BME280;41331;45.412;10.992;2023-02-13T04:44:37;103070.88;;;4.20;79.06
23433;BME280;41331;45.412;10.992;2023-02-13T04:47:05;103073.81;;;4.18;79.21
23433;BME280;41331;45.412;10.992;2023-02-13T04:49:33;103077.00;;;4.08;78.78
23433;BME280;41331;45.412;10.992;2023-02-13T04:52:00;103078.88;;;4.08;79.45
23433;BME280;41331;45.412;10.992;2023-02-13T04:54:27;103078.63;;;4.09;78.73
23433;BME280;41331;45.412;10.992;2023-02-13T04:56:55;103064.56;;;4.07;79.53
23433;BME280;41331;45.412;10.992;2023-02-13T04:59:22;103071.66;;;4.02;80.41
23433;BME280;41331;45.412;10.992;2023-02-13T05:01:49;103076.66;;;3.98;80.93
23433;BME280;41331;45.412;10.992;2023-02-13T05:04:17;103079.28;;;4.05;80.57
23433;BME280;41331;45.412;10.992;2023-02-13T05:06:44;103078.91;;;4.01;80.51
23433;BME280;41331;45.412;10.992;2023-02-13T05:09:12;103079.28;;;4.05;80.52
23433;BME280;41331;45.412;10.992;2023-02-13T05:11:39;103087.78;;;4.08;80.51
23433;BME280;41331;45.412;10.992;2023-02-13T05:14:06;103087.59;;;4.03;80.33
23433;BME280;41331;45.412;10.992;2023-02-13T05:16:34;103086.94;;;4.08;80.30
23433;BME280;41331;45.412;10.992;2023-02-13T05:19:02;103084.91;;;4.03;80.20
23433;BME280;41331;45.412;10.992;2023-02-13T05:21:29;103089.97;;;3.93;81.08
23433;BME280;41331;45.412;10.992;2023-02-13T05:24:15;103086.50;;;3.54;82.58
23433;BME280;41331;45.412;10.992;2023-02-13T05:26:45;103088.41;;;3.47;83.39
23433;BME280;41331;45.412;10.992;2023-02-13T05:29:14;103084.63;;;3.55;83.22
23433;BME280;41331;45.412;10.992;2023-02-13T05:31:54;103096.84;;;3.57;83.49
23433;BME280;41331;45.412;10.992;2023-02-13T05:34:23;103102.06;;;3.52;83.08
23433;BME280;41331;45.412;10.992;2023-02-13T05:36:51;103102.75;;;3.34;84.50
23433;BME280;41331;45.412;10.992;2023-02-13T05:39:20;103098.28;;;3.15;85.05
23433;BME280;41331;45.412;10.992;2023-02-13T05:41:48;103098.09;;;3.10;85.17
23433;BME280;41331;45.412;10.992;2023-02-13T05:44:15;103098.09;;;3.17;85.50
23433;BME280;41331;45.412;10.992;2023-02-13T05:46:43;103111.47;;;3.36;84.33
23433;BME280;41331;45.412;10.992;2023-02-13T05:49:13;103110.69;;;3.23;84.39
23433;BME280;41331;45.412;10.992;2023-02-13T05:51:42;103120.63;;;3.22;84.77
23433;BME280;41331;45.412;10.992;2023-02-13T05:54:09;103106.81;;;3.05;85.66
23433;BME280;41331;45.412;10.992;2023-02-13T05:56:36;103105.13;;;3.11;86.81
23433;BME280;41331;45.412;10.992;2023-02-13T05:59:04;103110.31;;;3.13;86.92
23433;BME280;41331;45.412;10.992;2023-02-13T06:01:31;103116.06;;;3.16;86.72
23433;BME280;41331;45.412;10.992;2023-02-13T06:03:59;103113.63;;;3.08;87.62
23433;BME280;41331;45.412;10.992;2023-02-13T06:06:29;103124.44;;;3.01;87.67
23433;BME280;41331;45.412;10.992;2023-02-13T06:08:57;103120.94;;;2.88;87.94
23433;BME280;41331;45.412;10.992;2023-02-13T06:11:24;103121.34;;;2.98;87.95
23433;BME280;41331;45.412;10.992;2023-02-13T06:13:51;103126.72;;;2.91;87.85
23433;BME280;41331;45.412;10.992;2023-02-13T06:16:19;103138.75;;;2.82;88.54
23433;BME280;41331;45.412;10.992;2023-02-13T06:18:46;103146.84;;;2.82;89.20
23433;BME280;41331;45.412;10.992;2023-02-13T06:21:14;103151.38;;;2.81;89.15
23433;BME280;41331;45.412;10.992;2023-02-13T06:23:41;103145.16;;;2.88;87.69
23433;BME280;41331;45.412;10.992;2023-02-13T06:26:09;103142.47;;;2.81;88.31
23433;BME280;41331;45.412;10.992;2023-02-13T06:28:36;103150.50;;;2.94;87.25
23433;BME280;41331;45.412;10.992;2023-02-13T06:31:04;103156.75;;;2.88;87.13
23433;BME280;41331;45.412;10.992;2023-02-13T06:33:31;103148.69;;;2.88;87.80
23433;BME280;41331;45.412;10.992;2023-02-13T06:35:59;103142.88;;;2.84;87.30
23433;BME280;41331;45.412;10.992;2023-02-13T06:38:26;103149.63;;;3.14;85.09
23433;BME280;41331;45.412;10.992;2023-02-13T06:40:58;103152.66;;;3.30;84.46
23433;BME280;41331;45.412;10.992;2023-02-13T06:43:27;103154.50;;;3.43;83.41
23433;BME280;41331;45.412;10.992;2023-02-13T06:45:54;103143.56;;;3.70;82.22
23433;BME280;41331;45.412;10.992;2023-02-13T06:48:21;103148.75;;;3.71;81.75
23433;BME280;41331;45.412;10.992;2023-02-13T06:50:49;103155.94;;;3.84;81.94
23433;BME280;41331;45.412;10.992;2023-02-13T06:53:18;103151.16;;;4.43;78.88
23433;BME280;41331;45.412;10.992;2023-02-13T06:55:52;103153.22;;;5.57;73.84
23433;BME280;41331;45.412;10.992;2023-02-13T06:58:21;103154.16;;;6.23;70.35
23433;BME280;41331;45.412;10.992;2023-02-13T07:00:49;103159.94;;;6.50;68.55
23433;BME280;41331;45.412;10.992;2023-02-13T07:03:20;103155.56;;;6.37;68.63
23433;BME280;41331;45.412;10.992;2023-02-13T07:05:47;103162.41;;;6.28;69.69
23433;BME280;41331;45.412;10.992;2023-02-13T07:08:18;103152.66;;;6.62;68.64
23433;BME280;41331;45.412;10.992;2023-02-13T07:10:48;103165.84;;;6.70;68.30
23433;BME280;41331;45.412;10.992;2023-02-13T07:13:15;103161.00;;;6.84;68.46
23433;BME280;41331;45.412;10.992;2023-02-13T07:15:45;103158.16;;;7.43;65.90
23433;BME280;41331;45.412;10.992;2023-02-13T07:18:13;103160.25;;;7.24;65.60
23433;BME280;41331;45.412;10.992;2023-02-13T07:20:40;103161.00;;;6.96;66.79
23433;BME280;41331;45.412;10.992;2023-02-13T07:23:10;103163.50;;;6.74;68.22
23433;BME280;41331;45.412;10.992;2023-02-13T07:25:37;103165.47;;;6.43;70.22
23433;BME280;41331;45.412;10.992;2023-02-13T07:28:05;103160.53;;;6.75;69.33
23433;BME280;41331;45.412;10.992;2023-02-13T07:30:34;103161.78;;;7.20;68.39
23433;BME280;41331;45.412;10.992;2023-02-13T07:33:03;103160.28;;;7.98;65.36
23433;BME280;41331;45.412;10.992;2023-02-13T07:35:31;103157.66;;;8.03;63.69
23433;BME280;41331;45.412;10.992;2023-02-13T07:37:59;103167.50;;;7.92;63.20
23433;BME280;41331;45.412;10.992;2023-02-13T07:40:27;103168.28;;;8.04;62.58
23433;BME280;41331;45.412;10.992;2023-02-13T07:42:55;103170.69;;;8.35;62.47
23433;BME280;41331;45.412;10.992;2023-02-13T07:45:22;103176.97;;;8.52;61.59
23433;BME280;41331;45.412;10.992;2023-02-13T07:47:50;103160.84;;;9.23;59.42
23433;BME280;41331;45.412;10.992;2023-02-13T07:50:18;103158.47;;;9.75;56.43
23433;BME280;41331;45.412;10.992;2023-02-13T07:52:54;103152.91;;;10.56;54.51
23433;BME280;41331;45.412;10.992;2023-02-13T07:55:22;103155.91;;;11.02;51.33
23433;BME280;41331;45.412;10.992;2023-02-13T07:57:50;103156.25;;;10.69;51.77
23433;BME280;41331;45.412;10.992;2023-02-13T08:00:18;103151.75;;;11.57;49.78
23433;BME280;41331;45.412;10.992;2023-02-13T08:02:45;103145.31;;;12.45;47.35
23433;BME280;41331;45.412;10.992;2023-02-13T08:05:13;103147.41;;;12.84;46.10
23433;BME280;41331;45.412;10.992;2023-02-13T08:07:41;103149.50;;;13.12;45.46
23433;BME280;41331;45.412;10.992;2023-02-13T08:10:11;103157.41;;;13.24;44.72
23433;BME280;41331;45.412;10.992;2023-02-13T08:12:57;103157.69;;;13.17;45.03
23433;BME280;41331;45.412;10.992;2023-02-13T08:15:24;103149.66;;;13.46;44.19
23433;BME280;41331;45.412;10.992;2023-02-13T08:17:52;103149.59;;;13.57;43.70
23433;BME280;41331;45.412;10.992;2023-02-13T08:20:19;103150.63;;;13.06;44.79
23433;BME280;41331;45.412;10.992;2023-02-13T08:22:47;103148.03;;;13.85;43.66
23433;BME280;41331;45.412;10.992;2023-02-13T08:25:14;103143.41;;;14.14;42.31
23433;BME280;41331;45.412;10.992;2023-02-13T08:27:42;103133.78;;;14.56;42.18
23433;BME280;41331;45.412;10.992;2023-02-13T08:30:10;103133.75;;;14.80;41.29
23433;BME280;41331;45.412;10.992;2023-02-13T08:32:38;103121.16;;;15.03;40.59
23433;BME280;41331;45.412;10.992;2023-02-13T08:35:21;103128.81;;;15.68;40.02
23433;BME280;41331;45.412;10.992;2023-02-13T08:37:49;103133.41;;;16.84;37.46
23433;BME280;41331;45.412;10.992;2023-02-13T08:40:16;103127.06;;;17.61;36.17
23433;BME280;41331;45.412;10.992;2023-02-13T08:42:44;103129.47;;;17.26;36.30
23433;BME280;41331;45.412;10.992;2023-02-13T08:45:11;103129.81;;;17.61;35.52
23433;BME280;41331;45.412;10.992;2023-02-13T08:47:38;103134.09;;;18.34;34.69
23433;BME280;41331;45.412;10.992;2023-02-13T08:50:06;103131.88;;;18.14;34.61
23433;BME280;41331;45.412;10.992;2023-02-13T08:52:34;103123.66;;;19.02;34.09
23433;BME280;41331;45.412;10.992;2023-02-13T08:55:01;103120.69;;;18.81;33.97
23433;BME280;41331;45.412;10.992;2023-02-13T08:57:30;103121.31;;;19.44;32.31
23433;BME280;41331;45.412;10.992;2023-02-13T08:59:57;103114.78;;;19.14;33.31
23433;BME280;41331;45.412;10.992;2023-02-13T09:02:25;103112.22;;;19.35;32.73
23433;BME280;41331;45.412;10.992;2023-02-13T09:04:52;103112.78;;;18.26;34.23
23433;BME280;41331;45.412;10.992;2023-02-13T09:07:20;103116.09;;;19.42;32.77
23433;BME280;41331;45.412;10.992;2023-02-13T09:09:47;103114.97;;;19.87;32.38
23433;BME280;41331;45.412;10.992;2023-02-13T09:12:15;103108.34;;;19.71;32.10
23433;BME280;41331;45.412;10.992;2023-02-13T09:14:43;103102.13;;;20.64;31.46
23433;BME280;41331;45.412;10.992;2023-02-13T09:17:13;103108.66;;;20.51;30.77
23433;BME280;41331;45.412;10.992;2023-02-13T09:19:44;103111.25;;;19.83;31.86
23433;BME280;41331;45.412;10.992;2023-02-13T09:22:13;103105.09;;;18.68;33.11
23433;BME280;41331;45.412;10.992;2023-02-13T09:24:43;103106.53;;;19.49;32.33
23433;BME280;41331;45.412;10.992;2023-02-13T09:27:10;103103.41;;;20.11;31.36
23433;BME280;41331;45.412;10.992;2023-02-13T09:29:39;103108.81;;;21.64;28.95
23433;BME280;41331;45.412;10.992;2023-02-13T09:32:06;103100.13;;;21.24;29.55
23433;BME280;41331;45.412;10.992;2023-02-13T09:34:34;103107.97;;;21.84;28.96
23433;BME280;41331;45.412;10.992;2023-02-13T09:37:01;103110.53;;;20.29;30.80
23433;BME280;41331;45.412;10.992;2023-02-13T09:39:28;103112.16;;;20.13;31.36
23433;BME280;41331;45.412;10.992;2023-02-13T09:41:57;103107.22;;;20.44;31.40
23433;BME280;41331;45.412;10.992;2023-02-13T09:44:40;103108.19;;;20.40;31.17
23433;BME280;41331;45.412;10.992;2023-02-13T09:47:27;103113.06;;;19.70;31.84
23433;BME280;41331;45.412;10.992;2023-02-13T09:52:37;103112.16;;;20.22;30.72
23433;BME280;41331;45.412;10.992;2023-02-13T09:55:15;103105.88;;;19.95;31.70
23433;BME280;41331;45.412;10.992;2023-02-13T09:58:02;103113.00;;;19.53;32.80
23433;BME280;41331;45.412;10.992;2023-02-13T10:00:38;103107.09;;;19.02;33.17
23433;BME280;41331;45.412;10.992;2023-02-13T10:14:48;103107.28;;;17.59;36.18
23433;BME280;41331;45.412;10.992;2023-02-13T10:17:29;103114.09;;;17.25;37.02
23433;BME280;41331;45.412;10.992;2023-02-13T10:20:02;103108.78;;;17.65;35.97
23433;BME280;41331;45.412;10.992;2023-02-13T10:22:42;103101.84;;;16.35;38.42
23433;BME280;41331;45.412;10.992;2023-02-13T10:25:16;103114.25;;;16.79;38.32
23433;BME280;41331;45.412;10.992;2023-02-13T10:27:53;103104.03;;;16.52;39.16
23433;BME280;41331;45.412;10.992;2023-02-13T10:30:25;103106.00;;;16.79;39.00
23433;BME280;41331;45.412;10.992;2023-02-13T10:33:03;103096.50;;;16.99;38.44
23433;BME280;41331;45.412;10.992;2023-02-13T10:35:59;103093.28;;;16.97;38.69
23433;BME280;41331;45.412;10.992;2023-02-13T10:38:30;103089.31;;;17.39;36.85
23433;BME280;41331;45.412;10.992;2023-02-13T10:46:21;103086.72;;;16.65;37.65
23433;BME280;41331;45.412;10.992;2023-02-13T10:49:13;103074.63;;;15.73;39.37
23433;BME280;41331;45.412;10.992;2023-02-13T10:52:00;103068.19;;;15.26;40.58
23433;BME280;41331;45.412;10.992;2023-02-13T11:00:06;103071.94;;;14.69;41.94
23433;BME280;41331;45.412;10.992;2023-02-13T11:02:36;103067.88;;;15.09;41.92
23433;BME280;41331;45.412;10.992;2023-02-13T11:05:20;103066.31;;;15.78;40.19
23433;BME280;41331;45.412;10.992;2023-02-13T11:07:49;103067.34;;;15.26;41.41
23433;BME280;41331;45.412;10.992;2023-02-13T11:10:22;103058.88;;;14.85;42.33
23433;BME280;41331;45.412;10.992;2023-02-13T11:12:50;103055.34;;;15.41;41.72
23433;BME280;41331;45.412;10.992;2023-02-13T11:15:26;103051.28;;;15.19;41.73
23433;BME280;41331;45.412;10.992;2023-02-13T11:17:59;103051.56;;;16.21;39.65
23433;BME280;41331;45.412;10.992;2023-02-13T11:20:38;103050.53;;;15.51;40.69
23433;BME280;41331;45.412;10.992;2023-02-13T11:25:56;103043.28;;;15.23;42.60
23433;BME280;41331;45.412;10.992;2023-02-13T11:28:28;103039.72;;;15.22;43.12
23433;BME280;41331;45.412;10.992;2023-02-13T11:31:36;103034.66;;;15.48;41.80
23433;BME280;41331;45.412;10.992;2023-02-13T11:34:26;103035.44;;;14.73;43.92
23433;BME280;41331;45.412;10.992;2023-02-13T11:37:29;103035.19;;;14.22;44.96
23433;BME280;41331;45.412;10.992;2023-02-13T11:39:59;103031.47;;;14.61;45.40
23433;BME280;41331;45.412;10.992;2023-02-13T11:42:43;103022.78;;;15.15;44.08
23433;BME280;41331;45.412;10.992;2023-02-13T11:45:21;103015.22;;;15.26;44.59
23433;BME280;41331;45.412;10.992;2023-02-13T11:47:49;103030.94;;;15.39;43.01
23433;BME280;41331;45.412;10.992;2023-02-13T11:50:26;103020.28;;;15.19;44.06
23433;BME280;41331;45.412;10.992;2023-02-13T11:55:34;103024.09;;;14.80;46.16
23433;BME280;41331;45.412;10.992;2023-02-13T11:58:03;103026.53;;;14.63;45.92
23433;BME280;41331;45.412;10.992;2023-02-13T12:00:32;103022.66;;;14.64;45.07
23433;BME280;41331;45.412;10.992;2023-02-13T12:03:29;103011.88;;;14.72;45.65
23433;BME280;41331;45.412;10.992;2023-02-13T12:06:12;103008.25;;;14.77;44.33
23433;BME280;41331;45.412;10.992;2023-02-13T12:08:45;103009.06;;;14.77;45.11
23433;BME280;41331;45.412;10.992;2023-02-13T12:11:39;103009.44;;;14.90;44.36
23433;BME280;41331;45.412;10.992;2023-02-13T12:14:37;102995.72;;;14.71;44.88
23433;BME280;41331;45.412;10.992;2023-02-13T12:17:16;102998.34;;;15.00;44.61
23433;BME280;41331;45.412;10.992;2023-02-13T12:19:58;103005.00;;;15.32;44.36
23433;BME280;41331;45.412;10.992;2023-02-13T12:22:52;102994.47;;;15.20;43.59
23433;BME280;41331;45.412;10.992;2023-02-13T12:25:33;102991.31;;;15.13;44.35
23433;BME280;41331;45.412;10.992;2023-02-13T12:28:14;102992.41;;;15.12;43.53
23433;BME280;41331;45.412;10.992;2023-02-13T12:41:16;102968.22;;;14.57;44.23
23433;BME280;41331;45.412;10.992;2023-02-13T12:49:39;102964.75;;;15.60;42.84
23433;BME280;41331;45.412;10.992;2023-02-13T12:52:24;102957.66;;;15.07;44.71
23433;BME280;41331;45.412;10.992;2023-02-13T12:55:12;102956.72;;;15.31;44.07
23433;BME280;41331;45.412;10.992;2023-02-13T12:57:52;102956.72;;;15.31;43.27
23433;BME280;41331;45.412;10.992;2023-02-13T13:03:46;102951.72;;;15.00;44.94
23433;BME280;41331;45.412;10.992;2023-02-13T13:07:06;102949.44;;;15.07;43.88
23433;BME280;41331;45.412;10.992;2023-02-13T13:09:24;102950.53;;;15.06;43.94
23433;BME280;41331;45.412;10.992;2023-02-13T13:25:46;102944.28;;;15.00;44.47
23433;BME280;41331;45.412;10.992;2023-02-13T13:28:22;102931.00;;;15.26;43.49
23433;BME280;41331;45.412;10.992;2023-02-13T13:30:51;102932.06;;;14.74;44.62
23433;BME280;41331;45.412;10.992;2023-02-13T13:33:22;102927.31;;;14.18;45.91
23433;BME280;41331;45.412;10.992;2023-02-13T13:50:21;102920.44;;;14.63;45.30
23433;BME280;41331;45.412;10.992;2023-02-13T13:53:12;102916.97;;;14.58;45.21
23433;BME280;41331;45.412;10.992;2023-02-13T14:01:22;102921.16;;;14.50;45.20
23433;BME280;41331;45.412;10.992;2023-02-13T14:03:57;102915.31;;;14.75;44.48
23433;BME280;41331;45.412;10.992;2023-02-13T14:06:28;102918.59;;;14.59;45.35
23433;BME280;41331;45.412;10.992;2023-02-13T14:09:39;102914.97;;;14.39;46.71
23433;BME280;41331;45.412;10.992;2023-02-13T14:14:56;102907.88;;;14.38;46.22
23433;BME280;41331;45.412;10.992;2023-02-13T14:17:50;102904.22;;;14.24;46.22
23433;BME280;41331;45.412;10.992;2023-02-13T14:20:33;102899.81;;;14.04;46.58
23433;BME280;41331;45.412;10.992;2023-02-13T14:25:40;102892.06;;;13.87;46.87
23433;BME280;41331;45.412;10.992;2023-02-13T14:28:21;102892.31;;;13.91;47.83
23433;BME280;41331;45.412;10.992;2023-02-13T14:30:51;102896.38;;;14.17;46.77
23433;BME280;41331;45.412;10.992;2023-02-13T14:33:28;102894.00;;;13.87;47.81
23433;BME280;41331;45.412;10.992;2023-02-13T14:36:03;102892.56;;;13.65;47.22
23433;BME280;41331;45.412;10.992;2023-02-13T14:38:34;102891.25;;;13.87;47.01
23433;BME280;41331;45.412;10.992;2023-02-13T14:41:02;102890.75;;;13.80;47.60
23433;BME280;41331;45.412;10.992;2023-02-13T14:43:35;102888.84;;;13.56;48.16
23433;BME280;41331;45.412;10.992;2023-02-13T14:46:36;102889.09;;;13.31;48.63
23433;BME280;41331;45.412;10.992;2023-02-13T14:49:15;102885.50;;;13.30;48.95
23433;BME280;41331;45.412;10.992;2023-02-13T14:51:47;102889.84;;;13.36;49.05
23433;BME280;41331;45.412;10.992;2023-02-13T14:54:26;102891.84;;;13.55;48.83
23433;BME280;41331;45.412;10.992;2023-02-13T14:57:27;102881.66;;;13.36;49.40
23433;BME280;41331;45.412;10.992;2023-02-13T14:59:58;102883.84;;;13.63;49.04
23433;BME280;41331;45.412;10.992;2023-02-13T15:02:34;102882.72;;;13.64;48.58
23433;BME280;41331;45.412;10.992;2023-02-13T15:05:09;102882.84;;;13.78;47.68
23433;BME280;41331;45.412;10.992;2023-02-13T15:08:04;102872.06;;;13.63;47.72
23433;BME280;41331;45.412;10.992;2023-02-13T15:10:47;102880.50;;;13.42;48.34
23433;BME280;41331;45.412;10.992;2023-02-13T15:13:18;102880.63;;;13.27;49.54
23433;BME280;41331;45.412;10.992;2023-02-13T15:15:57;102873.75;;;13.30;49.55
23433;BME280;41331;45.412;10.992;2023-02-13T15:18:29;102876.19;;;13.36;49.05
23433;BME280;41331;45.412;10.992;2023-02-13T15:20:58;102877.34;;;13.54;48.16
23433;BME280;41331;45.412;10.992;2023-02-13T15:23:29;102877.50;;;13.39;48.58
23433;BME280;41331;45.412;10.992;2023-02-13T15:26:00;102869.16;;;13.25;48.83
23433;BME280;41331;45.412;10.992;2023-02-13T15:28:28;102870.03;;;13.15;49.67